Home > Products > Valid Products > MTR

000
SAUS46 KMFR 192157
MTRSXT
METAR KSXT 192156Z AUTO VRB04KT 10SM OVC020 06/03 A3011 RMK AO2
SLP198 T00610028





000
SAUS46 KMFR 192140
MTRSXT
SPECI KSXT 192138Z AUTO 23007KT 180V350 10SM SCT014 OVC022 06/03
A3010 RMK AO2 T00610028





000
SAUS46 KMFR 192104
MTRSXT
SPECI KSXT 192103Z AUTO VRB03KT 10SM FEW002 OVC010 06/04 A3008 RMK
AO2 T00560044





000
SAUS46 KMFR 192057
MTRSXT
METAR KSXT 192056Z AUTO VRB03KT 9SM SCT002 OVC008 06/05 A3008 RMK
AO2 SLP185 60003 T00560050 51029





000
SAUS46 KMFR 192048
MTRSXT
SPECI KSXT 192047Z AUTO VRB05KT 5SM BR SCT002 OVC011 06/05 A3008 RMK
AO2 T00560050





000
SAUS46 KMFR 192046
MTRSXT
SPECI KSXT 192045Z AUTO VRB06KT 1 1/2SM BR BKN002 OVC011 06/05 A3008
RMK AO2 T00560050





000
SAUS46 KMFR 192034
MTRSXT
SPECI KSXT 192033Z AUTO VRB06KT 1/4SM FG BKN003 OVC011 06/05 A3008
RMK AO2 T00560050





000
SAUS46 KMFR 192031
MTRSXT
SPECI KSXT 192030Z AUTO VRB04KT 3/4SM BR SCT003 OVC011 06/05 A3007
RMK AO2 VIS M1/4V5 T00560050





000
SAUS46 KMFR 192029
MTRSXT
SPECI KSXT 192028Z AUTO VRB04KT 2SM BR SCT005 BKN011 OVC014 06/05
A3007 RMK AO2 VIS 1/2V5 T00560050





000
SAUS46 KMFR 192017
MTRSXT
SPECI KSXT 192016Z AUTO VRB04KT 10SM OVC013 06/04 A3007 RMK AO2
T00610044





000
SAUS46 KMFR 191957
MTRSXT
METAR KSXT 191956Z AUTO 23007G15KT 160V280 10SM OVC015 06/04 A3006
RMK AO2 RAB06E43 SLP175 P0003 T00560039





000
SAUS46 KMFR 191858
MTRSXT
METAR KSXT 191856Z AUTO VRB03KT 10SM OVC025 07/00 A3003 RMK AO2
RAB10E19 SLP165 P0000 T00670000





000
SAUS46 KMFR 191839
MTRSXT
SPECI KSXT 191838Z AUTO VRB03KT 10SM BKN025 OVC036 08/00 A3002 RMK
AO2 RAB10E19 P0000 T00830000





000
SAUS46 KMFR 191757
MTRSXT
METAR KSXT 191756Z AUTO 19008G17KT 10SM BKN034 OVC043 07/M03 A2999
RMK AO2 SLP147 T00721028 10089 20039 53023





000
SAUS46 KMFR 191657
MTRSXT
METAR KSXT 191656Z AUTO 18011G16KT 10SM SCT038 08/M09 A2995 RMK AO2
SLP128 T00831089





000
SAUS46 KMFR 191557
MTRSXT
METAR KSXT 191556Z AUTO 20011G19KT 10SM BKN034 07/M08 A2993 RMK AO2
SLP122 T00671083





000
SAUS46 KMFR 191457
MTRSXT
METAR KSXT 191456Z AUTO 18011KT 10SM CLR 05/M07 A2991 RMK AO2 SLP120
T00501072 53006





000
SAUS46 KMFR 191357
MTRSXT
METAR KSXT 191356Z AUTO 19011KT 10SM CLR 04/M06 A2990 RMK AO2 SLP116
T00441061





000
SAUS46 KMFR 191257
MTRSXT
METAR KSXT 191256Z AUTO 21012KT 10SM CLR 05/M07 A2989 RMK AO2 SLP110
T00501067





000
SAUS46 KMFR 191157
MTRSXT
METAR KSXT 191156Z AUTO 20013KT 10SM CLR 05/M04 A2989 RMK AO2 SLP107
T00501039 10083 20050 58006





000
SAUS46 KMFR 191057
MTRSXT
METAR KSXT 191056Z AUTO 21012KT 10SM CLR 06/M02 A2990 RMK AO2 SLP108
T00561017





000
SAUS46 KMFR 190958
MTRSXT
METAR KSXT 190956Z AUTO 20010KT 10SM CLR 06/M01 A2990 RMK AO2 SLP111
T00611011





000
SAUS46 KMFR 190857
MTRSXT
METAR KSXT 190856Z AUTO 22014KT 10SM CLR 07/M01 A2991 RMK AO2 SLP113
T00721011 55002





000
SAUS46 KMFR 190757
MTRSXT
METAR KSXT 190756Z AUTO 19012KT 10SM CLR 08/M01 A2990 RMK AO2 SLP110
T00781006 401440017





000
SAUS46 KMFR 190657
MTRSXT
METAR KSXT 190656Z AUTO 18012KT 10SM CLR 08/M02 A2989 RMK AO2 SLP113
T00781022





000
SAUS46 KMFR 190557
MTRSXT
METAR KSXT 190556Z AUTO 18009KT 10SM CLR 08/03 A2991 RMK AO2 SLP120
T00830028 10139 20083 58009





000
SAUS46 KMFR 190457
MTRSXT
METAR KSXT 190456Z AUTO 18006KT 10SM CLR 09/02 A2994 RMK AO2 SLP130
T00940022





000
SAUS46 KMFR 190357
MTRSXT
METAR KSXT 190356Z AUTO 19004KT 10SM CLR 11/M01 A2994 RMK AO2 SLP129
T01061006





000
SAUS46 KMFR 190257
MTRSXT
METAR KSXT 190256Z AUTO 34003KT 10SM CLR 11/03 A2995 RMK AO2 SLP135
T01060028 56007





000
SAUS46 KMFR 190157
MTRSXT
METAR KSXT 190156Z AUTO 23003KT 10SM CLR 12/02 A2995 RMK AO2 SLP137
T01170017





000
SAUS46 KMFR 190057
MTRSXT
METAR KSXT 190056Z AUTO 00000KT 10SM CLR 13/01 A2996 RMK AO2 SLP140
T01280011





000
SAUS46 KMFR 182357
MTRSXT
METAR KSXT 182356Z AUTO 00000KT 10SM OVC110 14/02 A2997 RMK AO2
SLP140 T01390022 10144 20078 58012





000
SAUS46 KMFR 182300
MTRMHS
METAR KMHS 182256Z AUTO 30007KT 10SM CLR 20/02 A2993 RMK AO2 SLP137
T02000017





000
SAUS46 KMFR 182257
MTRSXT
METAR KSXT 182256Z AUTO 00000KT 10SM OVC110 14/03 A2998 RMK AO2
SLP143 T01390033





000
SAUS46 KMFR 182158
MTRSXT
METAR KSXT 182156Z AUTO 00000KT 10SM FEW027 BKN120 13/05 A3000 RMK
AO2 SLP151 T01280050





000
SAUS46 KMFR 182100
MTRMHS
METAR KMHS 182056Z AUTO 29006KT 10SM CLR 18/02 A2997 RMK AO2 SLP155
T01830022 58017





000
SAUS46 KMFR 182057
MTRSXT
METAR KSXT 182056Z AUTO 00000KT 10SM CLR 11/06 A3001 RMK AO2 SLP157
T01110056 58003





000
SAUS46 KMFR 181957
MTRSXT
METAR KSXT 181956Z AUTO 00000KT 10SM CLR 11/04 A3002 RMK AO2 SLP160
T01060039





000
SAUS46 KMFR 181857
MTRSXT
METAR KSXT 181856Z AUTO 11004KT 10SM CLR 09/04 A3002 RMK AO2 SLP164
T00890039





000
SAUS46 KMFR 181804
MTRSXT
SPECI KSXT 181803Z AUTO VRB06KT 10SM SCT006 08/05 A3002 RMK AO2
T00830050





000
SAUS46 KMFR 181800
MTRMHS
METAR KMHS 181756Z AUTO VRB03KT 10SM CLR 13/02 A3003 RMK AO2 SLP179
T01280022 10128 20033 58003





000
SAUS46 KMFR 181757
MTRSXT
METAR KSXT 181756Z AUTO VRB04KT 10SM BKN006 08/05 A3002 RMK AO2 CIG
002V008 SLP165 T00780050 10078 20017 53001





000
SAUS46 KMFR 181750
MTRSXT
SPECI KSXT 181749Z AUTO VRB05KT 10SM SCT004 SCT008 07/04 A3002 RMK
AO2 T00670044





000
SAUS46 KMFR 181743
MTRSXT
SPECI KSXT 181742Z AUTO VRB04KT 10SM SCT005 BKN008 07/06 A3002 RMK
AO2 T00720056





000
SAUS46 KMFR 181657
MTRSXT
METAR KSXT 181656Z AUTO VRB05KT 10SM SCT004 07/05 A3001 RMK AO2
SLP165 T00670050





000
SAUS46 KMFR 181600
MTRMHS
METAR KMHS 181556Z AUTO VRB03KT 10SM BKN014 08/03 A3004 RMK AO2
SLP188 T00780028





000
SAUS46 KMFR 181557
MTRSXT
METAR KSXT 181556Z AUTO 13005KT 10SM FEW003 06/04 A3002 RMK AO2
SLP168 T00560039





000
SAUS46 KMFR 181457
MTRSXT
METAR KSXT 181456Z AUTO 11006KT 10SM CLR 03/03 A3002 RMK AO2 SLP173
T00330033 53002





000
SAUS46 KMFR 181416
MTRMHS
SPECI KMHS 181412Z AUTO 00000KT 10SM FEW008 OVC013 04/01 A3003 RMK
AO2 T00390006





000
SAUS46 KMFR 181357
MTRSXT
METAR KSXT 181356Z AUTO 11006KT 10SM CLR 02/02 A3001 RMK AO2 SLP174
T00220017





000
SAUS46 KMFR 181356
MTRMHS
METAR KMHS 181356Z AUTO 04003KT 10SM OVC013 04/01 A3003 RMK AO2
SLP189 T00390011





000
SAUS46 KMFR 181257
MTRSXT
METAR KSXT 181256Z AUTO 10005KT 10SM CLR 02/02 A3001 RMK AO2 SLP171
T00170017





000
SAUS46 KMFR 181235
MTRSXT
SPECI KSXT 181233Z AUTO 08004KT 10SM FEW016 02/02 A3001 RMK AO2
T00170017 $





000
SAUS46 KMFR 181157
MTRSXT
METAR KSXT 181156Z AUTO 05006KT 10SM BKN017 02/02 A3001 RMK AO2
SLP171 70020 T00220022 10039 20022 55001 $





000
SAUS46 KMFR 181100
MTRMHS
METAR KMHS 181056Z AUTO 00000KT 10SM OVC020 06/03 A3000 RMK AO2
SLP172 T00610028





000
SAUS46 KMFR 181059
MTRSXT
SPECI KSXT 181058Z AUTO 04007KT 4SM BR SCT001 SCT016 02/02 A3000 RMK
AO2 T00220022 $





000
SAUS46 KMFR 181057
MTRSXT
METAR KSXT 181056Z AUTO 03007KT 1 1/2SM BR SCT001 BKN016 02/02 A3000
RMK AO2 SLP169 T00220022 $





000
SAUS46 KMFR 181034
MTRSXT
SPECI KSXT 181033Z AUTO 02007KT 1 1/4SM BR FEW005 OVC015 03/03 A3001
RMK AO2 T00280028 $





000
SAUS46 KMFR 181031
MTRSXT
SPECI KSXT 181030Z AUTO 03007KT 2SM BR FEW002 OVC015 03/03 A3000 RMK
AO2 T00280028 $





000
SAUS46 KMFR 181026
MTRSXT
SPECI KSXT 181025Z AUTO 02006KT 1 1/4SM BR FEW002 OVC015 03/03 A3001
RMK AO2 T00280028 $





000
SAUS46 KMFR 181017
MTRSXT
SPECI KSXT 181016Z AUTO 02006KT 2SM BR SCT002 OVC015 03/03 A3001 RMK
AO2 VIS 1V5 T00280028 $





000
SAUS46 KMFR 181011
MTRSXT
SPECI KSXT 181010Z AUTO 03005KT 1SM BR SCT002 OVC016 03/03 A3001 RMK
AO2 T00280028 $





000
SAUS46 KMFR 180957
MTRSXT
METAR KSXT 180956Z AUTO 01007KT 1/4SM FG VV002 03/03 A3001 RMK AO2
SLP170 T00280028 $





000
SAUS46 KMFR 180952
MTRSXT
SPECI KSXT 180951Z AUTO 01007KT 1/4SM FG VV002 03/03 A3001 RMK AO2 $





000
SAUS46 KMFR 180944
MTRSXT
SPECI KSXT 180943Z AUTO 01005KT 1/2SM FG VV001 03/03 A3001 RMK AO2
T00280028 $





000
SAUS46 KMFR 180905
MTRSXT
SPECI KSXT 180904Z AUTO 01004KT 1/4SM FG VV002 03/03 A3001 RMK AO2
T00330033 $





000
SAUS46 KMFR 180857
MTRSXT
METAR KSXT 180856Z AUTO 36004KT 1/2SM FG VV002 03/03 A3001 RMK AO2
SLP170 T00330033 51001 $





000
SAUS46 KMFR 180854
MTRSXT
SPECI KSXT 180853Z AUTO 36004KT 3/4SM BR VV002 03/03 A3001 RMK AO2 $





000
SAUS46 KMFR 180845
MTRSXT
SPECI KSXT 180844Z AUTO 35004KT 1 3/4SM BR BKN002 BKN010 03/03 A3001
RMK AO2 VIS 1/2V5 T00330028 $





000
SAUS46 KMFR 180806
MTRSXT
SPECI KSXT 180805Z AUTO 00000KT 3/4SM BR VV002 04/04 A3001 RMK AO2
T00390039 $





000
SAUS46 KMFR 180804
MTRSXT
SPECI KSXT 180803Z AUTO 36003KT 1 1/4SM BR SCT002 04/03 A3001 RMK
AO2 T00390033 $





000
SAUS46 KMFR 180800
MTRMHS
METAR KMHS 180756Z AUTO 00000KT 10SM FEW019 SCT025 BKN035 07/03
A3000 RMK AO2 SLP166 T00670033 402000033





000
SAUS46 KMFR 180757
MTRSXT
METAR KSXT 180756Z AUTO 01004KT 10SM FEW002 03/03 A3001 RMK AO2
SLP168 T00330033 400830033 $





000
SAUS46 KMFR 180730
MTRSXT
SPECI KSXT 180729Z AUTO 36005KT 3SM BR FEW002 03/03 A3001 RMK AO2
T00330028 $





000
SAUS46 KMFR 180725
MTRSXT
SPECI KSXT 180724Z AUTO 35005KT 1 1/2SM BR SCT002 03/03 A3001 RMK
AO2 VIS 3/4V4 T00330028 $





000
SAUS46 KMFR 180718
MTRSXT
SPECI KSXT 180717Z AUTO 35005KT 1SM BR VV002 03/03 A3001 RMK AO2
T00330033 $





000
SAUS46 KMFR 180704
MTRSXT
SPECI KSXT 180703Z AUTO 35005KT 1/2SM FG VV002 03/03 A3001 RMK AO2
T00330033 $





000
SAUS46 KMFR 180657
MTRSXT
METAR KSXT 180656Z AUTO 34004KT 1/4SM FG VV002 03/03 A3001 RMK AO2
SLP162 T00330033 $





000
SAUS46 KMFR 180655
MTRSXT
SPECI KSXT 180654Z AUTO 34004KT 1/4SM FG VV002 03/03 A3001 RMK AO2 $





000
SAUS46 KMFR 180642
MTRSXT
SPECI KSXT 180641Z AUTO 34004KT 1/4SM FG VV001 03/03 A3001 RMK AO2
T00330033





000
SAUS46 KMFR 180557
MTRSXT
METAR KSXT 180556Z AUTO 33004KT 1/2SM FG VV003 04/04 A3001 RMK AO2
SLP162 60000 T00390039 10050 20039 50001





000
SAUS46 KMFR 180552
MTRSXT
SPECI KSXT 180551Z AUTO 33005KT 1/2SM FG VV003 04/04 A3001 RMK AO2





000
SAUS46 KMFR 180538
MTRSXT
SPECI KSXT 180537Z AUTO 32004KT 1/4SM FG VV003 04/04 A3001 RMK AO2
T00390039





000
SAUS46 KMFR 180503
MTRSXT
SPECI KSXT 180502Z AUTO 32004KT 1/2SM FG BKN004 BKN010 OVC033 04/04
A3001 RMK AO2 CIG 001V008 T00440044





000
SAUS46 KMFR 180457
MTRSXT
METAR KSXT 180456Z AUTO 32004KT 1SM BR FEW001 BKN010 OVC034 04/04
A3001 RMK AO2 SLP165 T00440044





000
SAUS46 KMFR 180452
MTRSXT
SPECI KSXT 180451Z AUTO 30003KT 1 3/4SM BR FEW001 BKN010 OVC034
04/04 A3001 RMK AO2 VIS 1 1/4V3





000
SAUS46 KMFR 180444
MTRSXT
SPECI KSXT 180443Z AUTO 31004KT 1 1/2SM BR SCT012 BKN027 OVC034
04/04 A3001 RMK AO2 VIS 1 1/4V3 T00440044





000
SAUS46 KMFR 180434
MTRSXT
SPECI KSXT 180433Z AUTO 32004KT 2SM BR FEW007 BKN027 OVC033 04/04
A3001 RMK AO2 T00440039





000
SAUS46 KMFR 180432
MTRSXT
SPECI KSXT 180431Z AUTO 32004KT 1 1/2SM BR SCT007 BKN012 OVC033
04/04 A3001 RMK AO2 T00440044





000
SAUS46 KMFR 180419
MTRSXT
SPECI KSXT 180418Z AUTO 32004KT 3/4SM BR FEW004 BKN028 OVC033 04/04
A3001 RMK AO2 T00390039





000
SAUS46 KMFR 180413
MTRSXT
SPECI KSXT 180412Z AUTO 26004KT 1 1/2SM BR SCT004 BKN010 BKN033
04/04 A3001 RMK AO2 T00440044





000
SAUS46 KMFR 180409
MTRSXT
SPECI KSXT 180408Z AUTO 26004KT 3/4SM BR SCT004 BKN011 04/04 A3001
RMK AO2 T00440044





000
SAUS46 KMFR 180401
MTRSXT
SPECI KSXT 180401Z AUTO 25004KT 1 1/2SM BR BKN004 BKN011 04/04 A3001
RMK AO2 T00390039





000
SAUS46 KMFR 180400
MTRMHS
METAR KMHS 180356Z AUTO 30009G17KT 270V330 10SM SCT065 OVC100 07/04
A2996 RMK AO2 SLP153 T00720044





000
SAUS46 KMFR 180358
MTRSXT
METAR KSXT 180356Z AUTO 26004KT 5SM BR BKN004 BKN014 04/04 A3000 RMK
AO2 SLP159 T00440039





000
SAUS46 KMFR 180353
MTRSXT
SPECI KSXT 180352Z AUTO 25004KT 2SM BR SCT004 BKN009 OVC014 04/04
A3000 RMK AO2 VIS 1/2V5





000
SAUS46 KMFR 180344
MTRSXT
SPECI KSXT 180343Z AUTO 25004KT 1 1/4SM BR BKN006 OVC014 04/04 A3000
RMK AO2 VIS 1/2V5 T00440044





000
SAUS46 KMFR 180342
MTRSXT
SPECI KSXT 180341Z AUTO 26003KT 2 1/2SM BR BKN006 OVC014 04/04 A2999
RMK AO2 VIS 3/4V5 T00440044





000
SAUS46 KMFR 180332
MTRSXT
SPECI KSXT 180331Z AUTO 24005KT 5SM BR FEW009 BKN014 OVC019 04/04
A2999 RMK AO2 T00440044





000
SAUS46 KMFR 180325
MTRSXT
SPECI KSXT 180324Z AUTO 25004KT 2 1/2SM BR BKN014 BKN019 OVC036
04/04 A2999 RMK AO2 T00440044





000
SAUS46 KMFR 180317
MTRSXT
SPECI KSXT 180316Z AUTO 25004KT 3SM BR BKN014 BKN019 OVC036 04/04
A2999 RMK AO2 T00440044





000
SAUS46 KMFR 180315
MTRSXT
SPECI KSXT 180314Z AUTO 25004KT 1 3/4SM BR FEW007 BKN014 OVC036
04/04 A2999 RMK AO2 VIS 1/2V5 T00440044





000
SAUS46 KMFR 180312
MTRSXT
SPECI KSXT 180311Z AUTO 28004KT 1/2SM FG FEW007 BKN014 OVC035 04/04
A2999 RMK AO2 T00440044





000
SAUS46 KMFR 180257
MTRSXT
METAR KSXT 180256Z AUTO 23005KT 1/4SM FG BKN008 BKN013 OVC020 04/04
A2998 RMK AO2 SLP153 60000 T00440044 53004





000
SAUS46 KMFR 180234
MTRSXT
SPECI KSXT 180233Z AUTO VRB04KT M1/4SM FG BKN005 OVC014 04/04 A2998
RMK AO2 T00440044





000
SAUS46 KMFR 180223
MTRSXT
SPECI KSXT 180221Z AUTO VRB05KT M1/4SM FG BKN003 OVC014 04/04 A2998
RMK AO2 T00440044





000
SAUS46 KMFR 180208
MTRSXT
SPECI KSXT 180207Z AUTO 21007KT M1/4SM FG SCT005 OVC016 04/04 A2997
RMK AO2 T00440044





000
SAUS46 KMFR 180157
MTRSXT
METAR KSXT 180156Z AUTO 21008KT M1/4SM FG BKN003 OVC018 04/04 A2997
RMK AO2 RAB28E46 SLP150 P0000 T00440044





000
SAUS46 KMFR 180134
MTRSXT
SPECI KSXT 180133Z AUTO 18008KT M1/4SM -RA FG BKN002 OVC042 04/04
A2997 RMK AO2 RAB28 P0000 T00440044





000
SAUS46 KMFR 180058
MTRSXT
METAR KSXT 180056Z AUTO 19007KT 160V220 M1/4SM FG VV001 05/05 A2997
RMK AO2 SLP150 T00500050





000
SAUS46 KMFR 180000
MTRMHS
METAR KMHS 172356Z AUTO 01008G22KT 340V050 10SM OVC055 12/04 A2990
RMK AO2 RAE2258 SLP140 P0000 60000 T01220039 10200 20122 53017





000
SAUS46 KMFR 172357
MTRSXT
METAR KSXT 172356Z AUTO 19007KT M1/4SM FG VV001 05/05 A2997 RMK AO2
SLP148 60020 T00500050 10083 20044 58000





000
SAUS46 KMFR 172257
MTRSXT
METAR KSXT 172256Z AUTO 21008G15KT 170V250 M1/4SM FG VV001 05/05
A2997 RMK AO2 RAE52 SLP148 P0005 T00500050





000
SAUS46 KMFR 172248
MTRSXT
SPECI KSXT 172246Z AUTO VRB06KT M1/4SM -RA FG VV001 05/05 A2997 RMK
AO2 P0005 T00500050





000
SAUS46 KMFR 172157
MTRSXT
METAR KSXT 172156Z AUTO 00000KT 1/4SM -RA FG VV004 05/05 A2998 RMK
AO2 SLP150 P0008 T00500050





000
SAUS46 KMFR 172145
MTRSXT
SPECI KSXT 172144Z AUTO VRB04KT 1/4SM -RA FG BKN005 OVC012 05/05
A2998 RMK AO2 P0007 T00500050





000
SAUS46 KMFR 172128
MTRSXT
SPECI KSXT 172127Z AUTO VRB05KT 1/2SM -RA FG BKN011 BKN018 OVC026
05/05 A2997 RMK AO2 P0005 T00500050





000
SAUS46 KMFR 172119
MTRSXT
SPECI KSXT 172118Z AUTO 1/4SM -RA FG BKN007 OVC015 05/05 A2997 RMK
AO2 P0004 T00500050





000
SAUS46 KMFR 172057
MTRSXT
METAR KSXT 172056Z AUTO VRB03KT 1/4SM -RA FG VV002 06/06 A2997 RMK
AO2 SLP145 P0006 60007 T00560056 53010





000
SAUS46 KMFR 172045
MTRSXT
SPECI KSXT 172044Z AUTO VRB03KT 1/4SM -RA FG BKN003 OVC009 06/05
A2997 RMK AO2 P0005 T00560050





000
SAUS46 KMFR 172039
MTRSXT
SPECI KSXT 172037Z AUTO 00000KT 1/2SM -RA FG BKN005 BKN009 OVC019
06/06 A2997 RMK AO2 P0004 T00560056





000
SAUS46 KMFR 172027
MTRSXT
SPECI KSXT 172026Z AUTO VRB04KT 3/4SM -RA BR FEW003 BKN011 OVC035
06/06 A2996 RMK AO2 P0003 T00560056





000
SAUS46 KMFR 172022
MTRSXT
SPECI KSXT 172021Z AUTO 33004KT 1 3/4SM -RA BR FEW003 BKN015 OVC035
06/06 A2996 RMK AO2 P0003 T00610056





000
SAUS46 KMFR 172017
MTRSXT
SPECI KSXT 172016Z AUTO VRB04KT 3SM -RA BR FEW003 BKN027 OVC037
06/06 A2996 RMK AO2 P0003 T00610056





000
SAUS46 KMFR 171957
MTRSXT
METAR KSXT 171956Z AUTO VRB03KT 4SM -RA BR BKN035 OVC045 06/05 A2995
RMK AO2 RAB31 SLP138 P0001 T00610050





000
SAUS46 KMFR 171857
MTRSXT
METAR KSXT 171856Z AUTO VRB04KT 10SM BKN080 BKN090 08/05 A2995 RMK
AO2 SLP133 T00830050





000
SAUS46 KMFR 171806
MTRSXT
SPECI KSXT 171805Z AUTO VRB04KT 10SM SCT003 OVC031 07/05 A2994 RMK
AO2 T00720050





000
SAUS46 KMFR 171758
MTRSXT
METAR KSXT 171756Z AUTO 10SM BKN003 OVC029 07/05 A2994 RMK AO2
SLP133 T00670050 10078 20061 53008





000
SAUS46 KMFR 171746
MTRSXT
SPECI KSXT 171745Z AUTO 10SM OVC003 06/04 A2994 RMK AO2 T00610044





000
SAUS46 KMFR 171657
MTRSXT
METAR KSXT 171656Z AUTO 32004KT 10SM OVC006 06/04 A2993 RMK AO2
SLP130 T00610044





000
SAUS46 KMFR 171631
MTRSXT
SPECI KSXT 171630Z AUTO VRB03KT 10SM BKN008 OVC013 06/04 A2992 RMK
AO2 CIG 006V011 T00610044





000
SAUS46 KMFR 171616
MTRSXT
SPECI KSXT 171614Z AUTO 33003KT 10SM BKN014 OVC024 06/04 A2992 RMK
AO2 T00610044





000
SAUS46 KMFR 171600
MTRMHS
METAR KMHS 171556Z AUTO VRB04KT 10SM CLR 14/03 A2988 RMK AO2 SLP118
T01390033





000
SAUS46 KMFR 171558
MTRSXT
METAR KSXT 171556Z AUTO 33004KT 10SM OVC025 07/05 A2992 RMK AO2
SLP123 T00720050





000
SAUS46 KMFR 171546
MTRSXT
SPECI KSXT 171545Z AUTO 32004KT 10SM BKN025 BKN050 OVC075 07/04
A2992 RMK AO2 T00670044





000
SAUS46 KMFR 171457
MTRSXT
METAR KSXT 171456Z AUTO 00000KT 10SM FEW025 BKN095 07/05 A2991 RMK
AO2 SLP119 T00720050 55002





000
SAUS46 KMFR 171400
MTRMHS
METAR KMHS 171356Z AUTO 00000KT 10SM CLR 03/01 A2988 RMK AO2 SLP126
T00330006





000
SAUS46 KMFR 171357
MTRSXT
METAR KSXT 171356Z AUTO 23005KT 10SM CLR 07/04 A2990 RMK AO2 SLP109
T00670039





000
SAUS46 KMFR 171300
MTRMHS
METAR KMHS 171256Z AUTO 05003KT 10SM CLR 04/01 A2990 RMK AO2 SLP130
T00390006





000
SAUS46 KMFR 171257
MTRSXT
METAR KSXT 171256Z AUTO 17006KT 10SM CLR 06/04 A2989 RMK AO2 SLP105
T00610039





000
SAUS46 KMFR 171200
MTRMHS
METAR KMHS 171156Z AUTO 00000KT 10SM CLR 04/01 A2991 RMK AO2 SLP135
T00440006 10128 20044 56015





000
SAUS46 KMFR 171157
MTRSXT
METAR KSXT 171156Z AUTO 18006KT 10SM BKN070 07/04 A2992 RMK AO2
SLP112 T00720039 10083 20067 56016





000
SAUS46 KMFR 171100
MTRMHS
METAR KMHS 171056Z AUTO 00000KT 10SM CLR 06/01 A2992 RMK AO2 SLP135
T00560006





000
SAUS46 KMFR 171057
MTRSXT
METAR KSXT 171056Z AUTO 17007KT 10SM CLR 07/04 A2993 RMK AO2 SLP116
T00720039





000
SAUS46 KMFR 171000
MTRMHS
METAR KMHS 170956Z AUTO 06003KT 10SM CLR 07/01 A2994 RMK AO2 SLP141
T00670006





000
SAUS46 KMFR 170957
MTRSXT
METAR KSXT 170956Z AUTO 21004KT 10SM CLR 07/04 A2995 RMK AO2 SLP127
T00720039





000
SAUS46 KMFR 170900
MTRMHS
METAR KMHS 170856Z AUTO 00000KT 10SM CLR 08/02 A2996 RMK AO2 SLP147
T00830017 58007





000
SAUS46 KMFR 170857
MTRSXT
METAR KSXT 170856Z AUTO 15006KT 10SM OVC110 08/04 A2997 RMK AO2
SLP135 T00830039 58014





000
SAUS46 KMFR 170800
MTRMHS
METAR KMHS 170756Z AUTO 35003KT 10SM CLR 11/01 A2998 RMK AO2 SLP152
T01060011 402000050





000
SAUS46 KMFR 170757
MTRSXT
METAR KSXT 170756Z AUTO 00000KT 10SM OVC110 08/04 A2999 RMK AO2
SLP143 T00830044 401390017





000
SAUS46 KMFR 170700
MTRMHS
METAR KMHS 170656Z AUTO 00000KT 10SM CLR 10/02 A2998 RMK AO2 SLP156
T01000017





000
SAUS46 KMFR 170657
MTRSXT
METAR KSXT 170656Z AUTO 34006KT 10SM OVC110 08/04 A3001 RMK AO2
SLP152 T00780039





000
SAUS46 KMFR 170600
MTRMHS
METAR KMHS 170556Z AUTO VRB03KT 10SM CLR 13/01 A2999 RMK AO2 SLP158
T01280011 10194 20122 50009





000
SAUS46 KMFR 170557
MTRSXT
METAR KSXT 170556Z AUTO 34005KT 10SM CLR 07/04 A3002 RMK AO2 SLP160
T00720039 10139 20067 58001





000
SAUS46 KMFR 170500
MTRMHS
METAR KMHS 170456Z AUTO 35005KT 10SM CLR 13/02 A2999 RMK AO2 SLP163
T01330017





000
SAUS46 KMFR 170457
MTRSXT
METAR KSXT 170456Z AUTO 34008KT 10SM BKN060 07/04 A3002 RMK AO2
SLP161 T00720039





000
SAUS46 KMFR 170400
MTRMHS
METAR KMHS 170356Z AUTO VRB03KT 10SM CLR 14/02 A2998 RMK AO2 SLP157
T01440017





000
SAUS46 KMFR 170357
MTRSXT
METAR KSXT 170356Z AUTO 36008KT 10SM OVC065 08/04 A3002 RMK AO2
SLP163 T00830039





000
SAUS46 KMFR 170300
MTRMHS
METAR KMHS 170256Z AUTO VRB04KT 10SM CLR 15/01 A2996 RMK AO2 SLP152
T01500011 53002





000
SAUS46 KMFR 170257
MTRSXT
METAR KSXT 170256Z AUTO 34007KT 10SM OVC070 09/04 A3002 RMK AO2
SLP161 T00940039 57005





000
SAUS46 KMFR 170200
MTRMHS
METAR KMHS 170156Z AUTO VRB05KT 10SM CLR 18/01 A2995 RMK AO2 SLP146
T01830006





000
SAUS46 KMFR 170157
MTRSXT
METAR KSXT 170156Z AUTO VRB04KT 10SM BKN070 12/04 A3002 RMK AO2
SLP162 T01170044





000
SAUS46 KMFR 170100
MTRMHS
METAR KMHS 170056Z AUTO 33007KT 280V030 10SM CLR 19/00 A2995 RMK AO2
SLP148 T01890000





000
SAUS46 KMFR 170057
MTRSXT
METAR KSXT 170056Z AUTO VRB03KT 10SM FEW060 13/04 A3003 RMK AO2
SLP162 T01330039





000
SAUS46 KMFR 170000
MTRMHS
METAR KMHS 162356Z AUTO 36008KT 300V040 10SM CLR 19/00 A2995 RMK AO2
SLP146 T01940000 10200 20128 56016





000
SAUS46 KMFR 162357
MTRSXT
METAR KSXT 162356Z AUTO VRB03KT 10SM CLR 14/03 A3003 RMK AO2 SLP164
T01390028 10139 20067 58011





000
SAUS46 KMFR 162300
MTRMHS
METAR KMHS 162256Z AUTO 30009G17KT 10SM CLR 20/00 A2996 RMK AO2
SLP147 T02000000





000
SAUS46 KMFR 162257
MTRSXT
METAR KSXT 162256Z AUTO 00000KT 10SM OVC070 14/03 A3005 RMK AO2
SLP168 T01390028





    US Dept of Commerce
    National Oceanic and Atmospheric Administration
    National Weather Service
    1325 East West Highway
    Silver Spring, MD 20910
    Page Author: NWS Internet Services Team
Disclaimer
Information Quality
Credits
Glossary
Privacy Policy
Freedom of Information Act (FOIA)
About Us
Career Opportunities